Time;durP1;ratioP1;P1;durP2;ratioP2;P2;SDS_P1;SDS_P2;PMS_P1;PMS_P2;Temp;Humidity;BMP_temperature;BMP_pressure;BME280_temperature;BME280_humidity;BME280_pressure;Samples;Min_cycle;Max_cycle;Signal;HPM_P1;HPM_P2
2022/12/18 00:00:04;;;;;;;;;;;;;;;21.14;32.52;98496.75;5095706;28;1963;-79
2022/12/18 00:02:39;;;;;;;;;;;;;;;21.41;31.60;98493.09;5095185;28;891;-79
2022/12/18 00:05:04;;;;;;;;;;;;;;;21.44;31.64;98487.34;5095796;28;1042;-80
2022/12/18 00:07:30;;;;;;;;;;;;;;;21.66;31.14;98481.28;5077394;28;1161;-79
2022/12/18 00:09:55;;;;;;;;;;;;;;;21.20;31.96;98489.38;5096053;28;913;-80
2022/12/18 00:12:21;;;;;;;;;;;;;;;21.08;31.93;98487.13;5096437;28;1066;-79
2022/12/18 00:14:46;;;;;;;;;;;;;;;21.17;31.52;98486.59;5096400;28;965;-79
2022/12/18 00:17:11;;;;;;;;;;;;;;;20.88;31.99;98480.59;5096938;28;856;-80
2022/12/18 00:19:37;;;;;;;;;;;;;;;20.95;31.88;98497.47;5097394;28;1898;-79
2022/12/18 00:22:02;;;;;;;;;;;;;;;21.20;32.35;98488.56;5099671;28;1029;-79
2022/12/18 00:24:28;;;;;;;;;;;;;;;21.39;31.68;98502.00;5064121;28;1093;-80
2022/12/18 00:26:53;;;;;;;;;;;;;;;21.37;31.58;98520.66;5100078;28;966;-80
2022/12/18 00:29:19;;;;;;;;;;;;;;;20.91;32.29;98525.00;5098537;28;1555;-80
2022/12/18 00:31:45;;;;;;;;;;;;;;;21.01;31.84;98541.00;5100037;28;915;-79
2022/12/18 00:34:11;;;;;;;;;;;;;;;20.98;31.73;98544.69;5099122;28;1180;-79
2022/12/18 00:36:39;;;;;;;;;;;;;;;20.85;32.05;98549.34;5098685;28;1173;-79
2022/12/18 00:39:04;;;;;;;;;;;;;;;21.07;32.71;98547.78;5098177;28;1905;-79
2022/12/18 00:44:14;;;;;;;;;;;;;;;21.20;31.57;98548.81;5097905;28;944;-79
2022/12/18 00:46:40;;;;;;;;;;;;;;;20.98;31.99;98544.69;5063691;28;1102;-79
2022/12/18 00:49:06;;;;;;;;;;;;;;;20.91;31.86;98544.81;5098816;28;1075;-79
2022/12/18 00:51:31;;;;;;;;;;;;;;;20.88;32.01;98545.66;5099133;28;822;-79
2022/12/18 00:53:57;;;;;;;;;;;;;;;21.35;32.00;98557.06;5099097;28;823;-80
2022/12/18 00:56:23;;;;;;;;;;;;;;;21.50;31.52;98564.09;5113366;28;1230;-79
2022/12/18 00:58:48;;;;;;;;;;;;;;;21.05;31.66;98553.88;5118219;28;1968;-79
2022/12/18 01:01:14;;;;;;;;;;;;;;;21.04;31.61;98560.78;5118538;28;1387;-79
2022/12/18 01:03:39;;;;;;;;;;;;;;;21.02;31.59;98562.41;5118945;28;1166;-80
2022/12/18 01:06:05;;;;;;;;;;;;;;;20.70;32.04;98546.72;5119632;28;891;-80
2022/12/18 01:08:31;;;;;;;;;;;;;;;21.22;31.70;98542.69;5101167;28;1235;-80
2022/12/18 01:10:57;;;;;;;;;;;;;;;21.42;31.25;98545.63;5119302;28;910;-79
2022/12/18 01:13:24;;;;;;;;;;;;;;;21.31;31.17;98538.13;5118957;28;933;-79
2022/12/18 01:15:51;;;;;;;;;;;;;;;21.14;31.40;98546.88;5117557;28;1027;-80
2022/12/18 01:18:16;;;;;;;;;;;;;;;20.89;31.58;98548.06;5100351;28;1212;-79
2022/12/18 01:20:42;;;;;;;;;;;;;;;20.68;31.97;98552.00;5099406;28;1905;-80
2022/12/18 01:23:07;;;;;;;;;;;;;;;20.94;32.42;98566.59;5116062;28;968;-80
2022/12/18 01:25:33;;;;;;;;;;;;;;;21.32;31.67;98576.53;5116517;28;877;-80
2022/12/18 01:27:58;;;;;;;;;;;;;;;21.44;31.09;98560.16;5116064;28;1029;-80
2022/12/18 01:30:24;;;;;;;;;;;;;;;21.00;31.54;98564.88;5116313;28;958;-80
2022/12/18 01:32:52;;;;;;;;;;;;;;;20.85;31.82;98564.28;5099091;28;1229;-80
2022/12/18 01:35:18;;;;;;;;;;;;;;;20.86;31.47;98565.09;5065890;28;1007;-80
2022/12/18 01:37:43;;;;;;;;;;;;;;;20.65;31.84;98552.84;5099096;28;982;-80
2022/12/18 01:40:09;;;;;;;;;;;;;;;21.19;32.12;98552.88;5099181;28;1906;-80
2022/12/18 01:42:35;;;;;;;;;;;;;;;21.43;31.23;98561.38;5115996;28;1131;-80
2022/12/18 01:45:01;;;;;;;;;;;;;;;21.23;31.19;98550.75;5115949;28;1039;-80
2022/12/18 01:47:29;;;;;;;;;;;;;;;21.02;31.75;98551.09;5098604;28;995;-79
2022/12/18 01:49:55;;;;;;;;;;;;;;;20.92;31.49;98552.84;5115575;28;961;-80
2022/12/18 01:52:20;;;;;;;;;;;;;;;21.05;31.21;98561.56;5112218;28;866;-79
2022/12/18 01:54:46;;;;;;;;;;;;;;;21.12;31.81;98572.78;5118130;28;858;-79
2022/12/18 01:57:11;;;;;;;;;;;;;;;21.26;31.39;98578.22;5100376;28;891;-79
2022/12/18 01:59:37;;;;;;;;;;;;;;;21.49;31.14;98585.13;5099308;28;1910;-79
2022/12/18 02:02:02;;;;;;;;;;;;;;;21.14;31.27;98580.81;5100065;28;1081;-79
2022/12/18 02:04:28;;;;;;;;;;;;;;;20.88;31.78;98580.41;5118313;28;970;-79
2022/12/18 02:07:16;;;;;;;;;;;;;;;20.81;31.80;98581.31;5116768;28;1278;-79
2022/12/18 02:09:44;;;;;;;;;;;;;;;20.70;32.11;98582.69;5116735;28;872;-80
2022/12/18 02:12:17;;;;;;;;;;;;;;;21.25;31.77;98584.31;5116471;28;1098;-79
2022/12/18 02:15:08;;;;;;;;;;;;;;;21.39;31.38;98586.13;5117390;28;849;-80
2022/12/18 02:17:36;;;;;;;;;;;;;;;21.20;31.38;98577.09;5038111;28;1561;-79
2022/12/18 02:20:21;;;;;;;;;;;;;;;20.99;31.50;98588.75;5054334;28;1991;-79
2022/12/18 02:22:56;;;;;;;;;;;;;;;20.92;31.62;98586.00;5054422;28;1076;-80
2022/12/18 02:25:21;;;;;;;;;;;;;;;21.04;31.17;98589.06;5037982;28;1123;-79
2022/12/18 02:27:47;;;;;;;;;;;;;;;21.39;31.25;98588.94;5054624;28;996;-79
2022/12/18 02:30:12;;;;;;;;;;;;;;;21.30;31.38;98592.34;5021450;28;1341;-80
2022/12/18 02:32:39;;;;;;;;;;;;;;;21.31;30.96;98608.88;5038108;28;999;-79
2022/12/18 02:35:05;;;;;;;;;;;;;;;21.00;31.08;98627.91;5037991;28;940;-80
2022/12/18 02:37:32;;;;;;;;;;;;;;;20.93;31.08;98632.88;5021472;28;1152;-79
2022/12/18 02:40:00;;;;;;;;;;;;;;;21.00;31.08;98627.91;5021576;28;1906;-80
2022/12/18 02:42:26;;;;;;;;;;;;;;;21.02;31.17;98631.13;5037452;28;1221;-79
2022/12/18 02:44:51;;;;;;;;;;;;;;;21.06;32.13;98648.06;5021274;28;1286;-79
2022/12/18 02:47:22;;;;;;;;;;;;;;;21.30;31.17;98661.06;5021963;28;1139;-79
2022/12/18 02:49:57;;;;;;;;;;;;;;;21.53;30.72;98657.47;5021432;28;931;-80
2022/12/18 02:52:31;;;;;;;;;;;;;;;21.10;31.22;98660.13;5037624;28;1107;-80
2022/12/18 02:55:01;;;;;;;;;;;;;;;20.96;31.50;98658.28;5096166;28;1351;-80
2022/12/18 02:57:34;;;;;;;;;;;;;;;20.96;31.90;98660.31;5100192;28;1263;-79
2022/12/18 03:00:02;;;;;;;;;;;;;;;21.10;31.62;98636.69;5099122;28;1978;-79
2022/12/18 03:02:46;;;;;;;;;;;;;;;21.40;31.10;98644.34;5099367;28;1286;-80
2022/12/18 03:05:16;;;;;;;;;;;;;;;21.25;31.05;98633.22;5082008;28;1931;-80
2022/12/18 03:07:49;;;;;;;;;;;;;;;21.06;31.19;98646.03;5099076;28;1389;-79
2022/12/18 03:10:16;;;;;;;;;;;;;;;20.97;31.16;98661.91;5115553;28;990;-79
2022/12/18 03:12:43;;;;;;;;;;;;;;;20.98;30.96;98663.50;5098585;28;1169;-80
2022/12/18 03:15:11;;;;;;;;;;;;;;;21.14;31.88;98663.72;5098867;28;1157;-80
2022/12/18 03:17:37;;;;;;;;;;;;;;;21.22;31.45;98673.69;5094093;28;1178;-79
2022/12/18 03:20:06;;;;;;;;;;;;;;;21.17;31.29;98671.34;5076766;28;1995;-79
2022/12/18 03:22:32;;;;;;;;;;;;;;;21.00;31.43;98650.56;5060775;28;1289;-80
2022/12/18 03:24:57;;;;;;;;;;;;;;;21.00;31.26;98638.44;5077404;28;951;-80
2022/12/18 03:27:23;;;;;;;;;;;;;;;20.85;31.82;98637.03;5060559;28;1574;-80
2022/12/18 03:30:12;;;;;;;;;;;;;;;21.10;31.66;98643.16;5077683;28;965;-80
2022/12/18 03:32:43;;;;;;;;;;;;;;;21.21;31.27;98640.97;5077215;28;1124;-79
2022/12/18 03:35:09;;;;;;;;;;;;;;;21.14;31.41;98641.06;5077192;28;1154;-80
2022/12/18 03:37:36;;;;;;;;;;;;;;;20.98;31.40;98641.69;5044086;28;1175;-80
2022/12/18 03:40:02;;;;;;;;;;;;;;;20.88;31.51;98642.66;5060473;28;1913;-79
2022/12/18 03:42:36;;;;;;;;;;;;;;;21.12;31.47;98646.34;5077098;28;1092;-80
2022/12/18 03:45:09;;;;;;;;;;;;;;;21.41;30.92;98648.78;5077015;28;1209;-80
2022/12/18 03:47:39;;;;;;;;;;;;;;;21.21;30.89;98643.00;5062386;28;1250;-79
2022/12/18 03:50:15;;;;;;;;;;;;;;;20.98;31.27;98635.22;5098425;28;1388;-80
2022/12/18 03:52:47;;;;;;;;;;;;;;;20.66;31.81;98642.09;5115217;28;1141;-79
2022/12/18 03:55:14;;;;;;;;;;;;;;;20.96;31.63;98649.00;5100635;28;1213;-79
2022/12/18 03:57:41;;;;;;;;;;;;;;;21.26;31.24;98651.81;5102332;28;1444;-79
2022/12/18 04:00:11;;;;;;;;;;;;;;;21.42;30.88;98661.72;5080241;28;1913;-79
2022/12/18 04:03:08;;;;;;;;;;;;;;;21.04;31.32;98661.84;4965873;28;897;-79
2022/12/18 04:05:40;;;;;;;;;;;;;;;21.06;31.37;98670.69;4962065;28;1228;-79
2022/12/18 04:08:07;;;;;;;;;;;;;;;20.91;31.30;98686.25;4962222;28;1112;-79
2022/12/18 04:10:36;;;;;;;;;;;;;;;20.77;31.59;98681.56;4962078;28;1299;-79
2022/12/18 04:13:02;;;;;;;;;;;;;;;21.05;31.65;98691.72;4977582;28;1247;-79
2022/12/18 04:15:28;;;;;;;;;;;;;;;21.23;31.08;98692.25;4977930;28;1128;-79
2022/12/18 04:17:54;;;;;;;;;;;;;;;21.45;30.74;98697.63;4945294;28;1240;-79
2022/12/18 04:20:22;;;;;;;;;;;;;;;20.98;31.10;98703.13;4961673;28;1918;-80
2022/12/18 04:22:48;;;;;;;;;;;;;;;21.04;31.19;98701.44;4920159;29;1049;-80
2022/12/18 04:25:13;;;;;;;;;;;;;;;20.93;31.22;98706.41;4919940;29;1354;-80
2022/12/18 04:27:49;;;;;;;;;;;;;;;20.84;31.38;98709.78;4920244;29;1288;-79
2022/12/18 04:30:14;;;;;;;;;;;;;;;21.06;31.21;98710.31;4907254;29;1514;-79
2022/12/18 04:32:40;;;;;;;;;;;;;;;21.34;30.94;98714.78;4943459;28;873;-78
2022/12/18 04:35:10;;;;;;;;;;;;;;;21.44;30.40;98724.34;4977716;28;1046;-79
2022/12/18 04:37:36;;;;;;;;;;;;;;;21.19;30.81;98727.50;4980772;28;1127;-78
2022/12/18 04:40:01;;;;;;;;;;;;;;;20.94;31.01;98725.03;5059197;28;1910;-79
2022/12/18 04:42:36;;;;;;;;;;;;;;;20.83;31.32;98713.00;5059936;28;1247;-78
2022/12/18 04:45:02;;;;;;;;;;;;;;;21.09;31.28;98715.13;5043067;28;1137;-78
2022/12/18 04:47:27;;;;;;;;;;;;;;;21.22;30.92;98730.28;5043177;28;960;-78
2022/12/18 04:49:52;;;;;;;;;;;;;;;21.30;30.63;98725.38;5059765;28;979;-78
2022/12/18 04:52:18;;;;;;;;;;;;;;;21.27;30.32;98748.84;5076591;28;1032;-78
2022/12/18 04:54:43;;;;;;;;;;;;;;;21.00;30.81;98743.13;5114527;28;975;-78
2022/12/18 04:57:09;;;;;;;;;;;;;;;20.93;31.09;98740.38;5119326;28;952;-79
2022/12/18 04:59:34;;;;;;;;;;;;;;;21.18;30.86;98748.53;5117939;28;1977;-78
2022/12/18 05:02:00;;;;;;;;;;;;;;;21.26;30.64;98753.69;5119240;28;927;-78
2022/12/18 05:04:25;;;;;;;;;;;;;;;21.31;30.42;98756.09;5119589;28;914;-78
2022/12/18 05:06:51;;;;;;;;;;;;;;;21.28;30.76;98756.88;5118098;28;1198;-78
2022/12/18 05:09:16;;;;;;;;;;;;;;;21.11;30.57;98774.91;5119089;28;892;-78
2022/12/18 05:11:42;;;;;;;;;;;;;;;21.02;30.85;98783.09;5118818;28;1059;-78
2022/12/18 05:14:07;;;;;;;;;;;;;;;21.06;31.19;98792.34;5099255;28;943;-78
2022/12/18 05:16:33;;;;;;;;;;;;;;;21.26;30.58;98778.38;5119084;28;889;-78
2022/12/18 05:18:59;;;;;;;;;;;;;;;21.29;30.54;98783.97;5118882;28;1971;-78
2022/12/18 05:21:24;;;;;;;;;;;;;;;21.03;30.67;98784.69;5118727;28;955;-78
2022/12/18 05:23:50;;;;;;;;;;;;;;;20.85;31.07;98795.44;5118145;28;954;-78
2022/12/18 05:26:17;;;;;;;;;;;;;;;20.74;31.01;98790.69;5099644;28;1074;-78
2022/12/18 05:28:42;;;;;;;;;;;;;;;20.67;31.43;98793.56;5100442;28;903;-78
2022/12/18 05:31:07;;;;;;;;;;;;;;;20.66;31.25;98791.97;5118646;28;862;-78
2022/12/18 05:33:33;;;;;;;;;;;;;;;20.98;30.92;98805.75;5117117;28;1115;-78
2022/12/18 05:35:59;;;;;;;;;;;;;;;21.08;30.81;98804.03;5119030;28;907;-78
2022/12/18 05:38:28;;;;;;;;;;;;;;;21.36;30.46;98796.47;5118594;28;839;-78
2022/12/18 05:40:53;;;;;;;;;;;;;;;21.09;30.74;98805.66;5117555;28;1986;-78
2022/12/18 05:43:19;;;;;;;;;;;;;;;21.08;30.71;98809.69;5116934;28;966;-78
2022/12/18 05:45:44;;;;;;;;;;;;;;;20.89;31.04;98807.50;5117046;28;869;-78
2022/12/18 05:48:10;;;;;;;;;;;;;;;20.98;31.01;98822.75;5117036;28;928;-78
2022/12/18 05:50:39;;;;;;;;;;;;;;;21.13;30.47;98839.56;5117071;28;939;-78
2022/12/18 05:53:04;;;;;;;;;;;;;;;21.23;30.37;98847.94;5100020;28;1053;-78
2022/12/18 05:55:34;;;;;;;;;;;;;;;21.14;30.39;98858.97;5116641;28;961;-78
2022/12/18 05:57:59;;;;;;;;;;;;;;;20.85;30.63;98860.50;5116429;28;908;-78
2022/12/18 06:00:25;;;;;;;;;;;;;;;20.98;30.31;98867.22;5117762;28;1980;-78
2022/12/18 06:02:50;;;;;;;;;;;;;;;21.32;30.14;98876.56;5117992;28;941;-79
2022/12/18 06:05:16;;;;;;;;;;;;;;;21.18;30.17;98887.22;5117728;28;922;-78
2022/12/18 06:07:41;;;;;;;;;;;;;;;21.31;30.30;98905.31;5117749;28;957;-78
2022/12/18 06:10:07;;;;;;;;;;;;;;;21.06;30.29;98920.50;5117783;28;999;-78
2022/12/18 06:12:33;;;;;;;;;;;;;;;20.96;30.66;98931.91;5098548;28;1326;-78
2022/12/18 06:14:59;;;;;;;;;;;;;;;20.87;30.55;98951.38;5116404;28;931;-78
2022/12/18 06:17:28;;;;;;;;;;;;;;;21.21;30.13;98955.13;5115989;28;981;-78
2022/12/18 06:19:54;;;;;;;;;;;;;;;21.25;30.12;98960.75;5116195;28;1905;-78
2022/12/18 06:22:19;;;;;;;;;;;;;;;21.12;30.11;98957.63;5117625;28;959;-78
2022/12/18 06:24:45;;;;;;;;;;;;;;;20.97;30.30;98961.81;5117684;28;1009;-78
2022/12/18 06:27:10;;;;;;;;;;;;;;;20.93;30.56;98963.84;5117293;28;932;-78
2022/12/18 06:29:36;;;;;;;;;;;;;;;20.83;30.64;98970.41;5117130;28;929;-78
2022/12/18 06:32:01;;;;;;;;;;;;;;;21.04;30.36;98962.56;5117601;28;951;-78
2022/12/18 06:34:26;;;;;;;;;;;;;;;21.07;30.46;98972.22;5117228;28;915;-78
2022/12/18 06:36:52;;;;;;;;;;;;;;;21.25;29.87;98980.56;5117129;28;855;-78
2022/12/18 06:39:17;;;;;;;;;;;;;;;21.17;29.86;98985.47;5116662;28;1910;-78
2022/12/18 06:41:43;;;;;;;;;;;;;;;20.88;30.34;98998.25;5117105;28;978;-79
2022/12/18 06:44:08;;;;;;;;;;;;;;;20.87;30.32;99003.09;5115819;28;944;-78
2022/12/18 06:46:34;;;;;;;;;;;;;;;21.17;30.07;99024.28;5117356;28;933;-79
2022/12/18 06:48:59;;;;;;;;;;;;;;;20.99;30.19;99028.09;5097867;28;1003;-78
2022/12/18 06:51:25;;;;;;;;;;;;;;;21.26;30.09;99031.09;5117465;28;910;-78
2022/12/18 06:53:50;;;;;;;;;;;;;;;21.06;29.96;99030.03;5097608;28;983;-78
2022/12/18 06:56:16;;;;;;;;;;;;;;;20.89;30.24;99031.00;5115823;28;877;-78
2022/12/18 06:58:41;;;;;;;;;;;;;;;20.91;30.28;99032.19;5115522;28;1045;-78
2022/12/18 07:01:07;;;;;;;;;;;;;;;21.16;29.88;99026.31;5117240;28;1979;-78
2022/12/18 07:03:33;;;;;;;;;;;;;;;21.31;29.63;99033.50;5115405;28;929;-78
2022/12/18 07:05:59;;;;;;;;;;;;;;;21.55;29.14;99042.16;5117357;28;887;-78
2022/12/18 07:08:24;;;;;;;;;;;;;;;21.04;29.77;99053.09;5116757;28;917;-79
2022/12/18 07:10:50;;;;;;;;;;;;;;;20.85;30.19;99058.50;5115586;28;870;-78
2022/12/18 07:13:15;;;;;;;;;;;;;;;20.98;29.88;99066.06;5116659;28;1157;-78
2022/12/18 07:15:41;;;;;;;;;;;;;;;21.16;30.23;99080.09;5117324;28;894;-79
2022/12/18 07:18:06;;;;;;;;;;;;;;;21.02;29.94;99088.69;5116904;28;975;-78
2022/12/18 07:20:32;;;;;;;;;;;;;;;21.18;29.85;99094.63;5115388;28;1879;-78
2022/12/18 07:22:57;;;;;;;;;;;;;;;21.02;29.78;99105.66;5115291;28;982;-78
2022/12/18 07:25:23;;;;;;;;;;;;;;;20.89;30.11;99113.03;5116825;28;907;-78
2022/12/18 07:27:48;;;;;;;;;;;;;;;20.87;30.16;99121.13;5116541;28;986;-79
2022/12/18 07:30:13;;;;;;;;;;;;;;;20.80;30.34;99119.94;5121030;28;933;-79
2022/12/18 07:32:39;;;;;;;;;;;;;;;21.09;29.98;99111.28;5120936;28;931;-79
2022/12/18 07:35:04;;;;;;;;;;;;;;;21.14;29.72;99118.50;5120514;28;930;-79
2022/12/18 07:37:30;;;;;;;;;;;;;;;21.20;29.58;99120.50;5120909;27;1082;-79
2022/12/18 07:39:55;;;;;;;;;;;;;;;21.32;29.48;99124.88;5120505;28;1964;-78
2022/12/18 07:42:33;;;;;;;;;;;;;;;21.20;29.40;99123.34;5121062;28;940;-78
2022/12/18 07:44:59;;;;;;;;;;;;;;;21.24;29.32;99118.47;5119509;28;1041;-78
2022/12/18 07:47:24;;;;;;;;;;;;;;;21.11;29.80;99131.47;5120943;27;852;-78
2022/12/18 07:49:50;;;;;;;;;;;;;;;20.86;30.07;99142.16;5120607;28;885;-79
2022/12/18 07:52:15;;;;;;;;;;;;;;;21.00;30.22;99142.88;5120524;28;900;-79
2022/12/18 07:54:41;;;;;;;;;;;;;;;21.27;29.55;99143.09;5120356;28;920;-79
2022/12/18 07:57:07;;;;;;;;;;;;;;;21.20;29.62;99140.31;5120332;28;874;-78
2022/12/18 07:59:32;;;;;;;;;;;;;;;21.25;29.38;99145.53;5119818;28;1902;-78
2022/12/18 08:01:58;;;;;;;;;;;;;;;21.11;29.60;99145.63;5120680;28;880;-78
2022/12/18 08:04:24;;;;;;;;;;;;;;;21.01;30.09;99143.66;5120573;28;862;-78
2022/12/18 08:06:49;;;;;;;;;;;;;;;20.86;30.05;99153.47;5120557;27;916;-79
2022/12/18 08:09:15;;;;;;;;;;;;;;;21.19;29.89;99152.88;5120232;27;825;-79
2022/12/18 08:11:40;;;;;;;;;;;;;;;21.23;29.61;99162.13;5120447;28;1026;-78
2022/12/18 08:14:06;;;;;;;;;;;;;;;21.36;29.08;99156.81;5119857;28;990;-78
2022/12/18 08:16:31;;;;;;;;;;;;;;;21.16;29.51;99162.19;5119222;28;974;-78
2022/12/18 08:18:56;;;;;;;;;;;;;;;20.91;29.88;99155.84;5119729;28;1906;-79
2022/12/18 08:21:23;;;;;;;;;;;;;;;20.94;29.94;99155.03;5119838;28;980;-78
2022/12/18 08:23:49;;;;;;;;;;;;;;;21.01;29.74;99155.78;5120112;27;917;-79
2022/12/18 08:26:14;;;;;;;;;;;;;;;21.26;29.35;99161.31;5119017;28;907;-78
2022/12/18 08:28:40;;;;;;;;;;;;;;;21.39;29.32;99170.13;5119686;28;859;-78
2022/12/18 08:31:06;;;;;;;;;;;;;;;20.97;29.72;99169.16;5119810;28;861;-78
2022/12/18 08:33:31;;;;;;;;;;;;;;;20.71;30.31;99167.66;5099998;28;1169;-78
2022/12/18 08:35:57;;;;;;;;;;;;;;;20.64;30.23;99170.53;5119862;28;855;-78
2022/12/18 08:38:23;;;;;;;;;;;;;;;20.90;30.15;99171.22;5119665;28;878;-78
2022/12/18 08:40:48;;;;;;;;;;;;;;;21.16;29.62;99167.84;5119256;27;1984;-78
2022/12/18 08:45:58;;;;;;;;;;;;;;;20.95;29.63;99179.28;5119464;28;856;-78
2022/12/18 08:48:23;;;;;;;;;;;;;;;20.95;29.91;99176.47;5119221;28;976;-78
2022/12/18 08:50:55;;;;;;;;;;;;;;;20.87;29.88;99177.69;5119521;28;1058;-78
2022/12/18 08:53:20;;;;;;;;;;;;;;;20.89;30.18;99176.09;5117613;28;980;-78
2022/12/18 08:55:46;;;;;;;;;;;;;;;21.20;29.50;99168.63;5118361;28;1221;-78
2022/12/18 08:58:11;;;;;;;;;;;;;;;21.40;28.94;99168.09;5118762;28;858;-78
2022/12/18 09:00:37;;;;;;;;;;;;;;;21.30;29.06;99173.44;5119172;28;1909;-78
2022/12/18 09:03:02;;;;;;;;;;;;;;;20.88;29.81;99167.97;5099559;28;925;-79
2022/12/18 09:05:28;;;;;;;;;;;;;;;20.87;29.70;99164.34;5119143;28;960;-78
2022/12/18 09:07:53;;;;;;;;;;;;;;;21.06;29.81;99174.38;5118864;28;906;-78
2022/12/18 09:10:18;;;;;;;;;;;;;;;21.18;29.38;99171.03;5119514;28;923;-78
2022/12/18 09:12:44;;;;;;;;;;;;;;;21.37;29.23;99171.78;5118953;27;1053;-78
2022/12/18 09:15:09;;;;;;;;;;;;;;;21.08;29.24;99166.25;5118609;28;978;-78
2022/12/18 09:17:35;;;;;;;;;;;;;;;20.91;29.88;99155.84;5118816;28;854;-78
2022/12/18 09:20:00;;;;;;;;;;;;;;;20.97;29.43;99157.03;5118753;28;1967;-78
2022/12/18 09:22:26;;;;;;;;;;;;;;;21.08;29.65;99154.94;5118838;28;875;-78
2022/12/18 09:24:51;;;;;;;;;;;;;;;21.40;29.13;99159.59;5118564;28;1012;-78
2022/12/18 09:27:16;;;;;;;;;;;;;;;21.45;28.67;99156.31;5118438;28;957;-78
2022/12/18 09:29:42;;;;;;;;;;;;;;;21.13;29.19;99168.66;5118053;28;934;-78
2022/12/18 09:32:07;;;;;;;;;;;;;;;20.81;29.90;99158.31;5118814;28;866;-78
2022/12/18 09:34:33;;;;;;;;;;;;;;;20.87;29.60;99155.06;5116878;28;1004;-78
2022/12/18 09:36:58;;;;;;;;;;;;;;;21.25;29.11;99165.34;5118555;28;923;-78
2022/12/18 09:39:24;;;;;;;;;;;;;;;21.40;28.72;99170.94;5118535;28;1914;-78
2022/12/18 09:41:53;;;;;;;;;;;;;;;21.08;29.18;99169.09;5099543;28;1168;-78
2022/12/18 09:44:29;;;;;;;;;;;;;;;20.99;29.43;99174.41;5116631;28;1068;-78
2022/12/18 09:47:15;;;;;;;;;;;;;;;20.96;29.25;99163.91;5116973;28;870;-78
2022/12/18 09:49:42;;;;;;;;;;;;;;;21.14;29.17;99156.13;5117534;28;1101;-78
2022/12/18 09:52:26;;;;;;;;;;;;;;;21.28;28.89;99150.34;5117194;28;860;-78
2022/12/18 09:54:59;;;;;;;;;;;;;;;21.47;28.57;99148.25;5117682;28;1012;-78
2022/12/18 09:57:25;;;;;;;;;;;;;;;21.35;28.52;99151.53;5116941;28;877;-78
2022/12/18 10:00:03;;;;;;;;;;;;;;;20.98;29.44;99155.81;5117726;28;1984;-78
2022/12/18 10:02:36;;;;;;;;;;;;;;;20.94;29.53;99163.53;5117895;28;961;-78
2022/12/18 10:05:05;;;;;;;;;;;;;;;21.18;29.29;99154.06;5117933;28;1082;-78
2022/12/18 10:07:33;;;;;;;;;;;;;;;21.53;28.50;99152.22;5095097;28;941;-78
2022/12/18 10:10:19;;;;;;;;;;;;;;;21.29;29.04;99148.31;5094740;28;928;-78
2022/12/18 10:13:07;;;;;;;;;;;;;;;20.94;29.52;99144.53;5054377;28;1164;-78
2022/12/18 10:15:51;;;;;;;;;;;;;;;20.64;29.89;99138.63;5034814;28;2284;-78
2022/12/18 10:18:32;;;;;;;;;;;;;;;21.18;28.95;99141.94;5034256;28;1009;-78
2022/12/18 10:21:00;;;;;;;;;;;;;;;21.19;28.95;99144.38;5034855;28;1913;-78
2022/12/18 10:23:25;;;;;;;;;;;;;;;21.10;28.95;99141.19;5017944;28;952;-78
2022/12/18 10:25:55;;;;;;;;;;;;;;;20.89;29.63;99149.81;5035127;28;1062;-78
2022/12/18 10:28:21;;;;;;;;;;;;;;;20.80;29.43;99144.59;5034458;28;975;-78
2022/12/18 10:30:46;;;;;;;;;;;;;;;21.05;29.14;99155.78;5034613;28;934;-78
2022/12/18 10:33:13;;;;;;;;;;;;;;;21.33;28.78;99154.81;5017971;28;1017;-77
2022/12/18 10:35:42;;;;;;;;;;;;;;;21.26;28.89;99149.97;5034423;28;955;-78
2022/12/18 10:38:21;;;;;;;;;;;;;;;21.02;29.23;99156.59;4990961;28;1123;-78
2022/12/18 10:41:02;;;;;;;;;;;;;;;20.88;29.53;99162.31;4978709;28;1993;-78
2022/12/18 10:43:29;;;;;;;;;;;;;;;20.92;29.23;99151.81;4978322;28;1043;-78
2022/12/18 10:45:57;;;;;;;;;;;;;;;20.93;29.34;99164.72;4978952;28;1038;-78
2022/12/18 10:48:23;;;;;;;;;;;;;;;21.24;28.85;99162.91;4994432;28;958;-78
2022/12/18 10:50:49;;;;;;;;;;;;;;;21.23;29.06;99164.94;4996229;28;1044;-79
2022/12/18 10:53:18;;;;;;;;;;;;;;;21.15;28.92;99157.75;5029023;28;1016;-78
2022/12/18 10:55:44;;;;;;;;;;;;;;;20.78;29.46;99164.81;5037278;28;952;-78
2022/12/18 10:58:15;;;;;;;;;;;;;;;20.88;29.46;99162.31;5020522;28;937;-78
2022/12/18 11:00:40;;;;;;;;;;;;;;;20.97;29.50;99168.34;5054462;28;1910;-78
2022/12/18 11:03:13;;;;;;;;;;;;;;;21.26;28.93;99166.97;5036829;28;1090;-78
2022/12/18 11:05:39;;;;;;;;;;;;;;;21.32;28.65;99176.66;5034423;28;908;-78
2022/12/18 11:08:04;;;;;;;;;;;;;;;21.05;28.86;99172.75;5040532;28;1005;-78
2022/12/18 11:10:30;;;;;;;;;;;;;;;21.02;29.09;99177.22;5096397;28;865;-78
2022/12/18 11:12:55;;;;;;;;;;;;;;;20.70;29.74;99185.84;5095218;28;1209;-78
2022/12/18 11:15:26;;;;;;;;;;;;;;;21.10;29.12;99189.31;5096104;28;894;-78
2022/12/18 11:17:51;;;;;;;;;;;;;;;21.22;28.88;99188.81;5095283;28;945;-78
2022/12/18 11:20:26;;;;;;;;;;;;;;;21.08;28.97;99188.91;5078381;28;1910;-78
2022/12/18 11:22:56;;;;;;;;;;;;;;;20.92;29.55;99180.09;5094877;28;963;-78
2022/12/18 11:25:21;;;;;;;;;;;;;;;20.86;29.40;99193.06;5095407;28;882;-78
2022/12/18 11:27:47;;;;;;;;;;;;;;;20.76;29.47;99195.53;5095317;28;823;-78
2022/12/18 11:30:19;;;;;;;;;;;;;;;21.09;29.41;99184.88;5095173;28;873;-78
2022/12/18 11:32:45;;;;;;;;;;;;;;;21.17;29.01;99199.78;5095949;28;942;-78
2022/12/18 11:35:15;;;;;;;;;;;;;;;21.28;28.65;99198.47;5095245;28;936;-78
2022/12/18 11:37:41;;;;;;;;;;;;;;;21.09;28.91;99196.19;5095102;28;856;-78
2022/12/18 11:40:12;;;;;;;;;;;;;;;20.89;29.60;99197.91;5094791;28;1979;-78
2022/12/18 11:42:47;;;;;;;;;;;;;;;20.98;29.42;99206.75;5078322;28;899;-78
2022/12/18 11:45:12;;;;;;;;;;;;;;;21.20;28.98;99208.25;5095867;28;1016;-78
2022/12/18 11:47:47;;;;;;;;;;;;;;;21.37;28.73;99211.41;5095794;28;916;-78
2022/12/18 11:50:14;;;;;;;;;;;;;;;21.00;29.17;99207.16;5094818;28;893;-78
2022/12/18 11:52:39;;;;;;;;;;;;;;;20.66;29.75;99201.22;5078058;28;1485;-79
2022/12/18 11:55:15;;;;;;;;;;;;;;;20.68;29.74;99204.47;5078192;28;916;-79
2022/12/18 11:57:59;;;;;;;;;;;;;;;21.01;29.36;99211.59;5094836;28;1114;-78
2022/12/18 12:00:25;;;;;;;;;;;;;;;21.18;28.97;99210.66;5095570;28;1905;-78
2022/12/18 12:02:56;;;;;;;;;;;;;;;21.03;29.21;99201.44;5096055;28;923;-78
2022/12/18 12:05:34;;;;;;;;;;;;;;;20.71;29.53;99193.13;5096172;28;843;-78
2022/12/18 12:07:59;;;;;;;;;;;;;;;20.83;29.38;99210.84;5095619;28;920;-78
2022/12/18 12:10:31;;;;;;;;;;;;;;;21.24;28.88;99209.03;5095962;28;997;-78
2022/12/18 12:12:56;;;;;;;;;;;;;;;21.29;28.97;99217.06;5095382;28;1015;-79
2022/12/18 12:15:22;;;;;;;;;;;;;;;21.30;28.82;99221.56;5096963;28;872;-78
2022/12/18 12:17:47;;;;;;;;;;;;;;;21.15;29.00;99228.50;5099513;28;864;-78
2022/12/18 12:20:19;;;;;;;;;;;;;;;20.98;29.13;99240.69;5098600;28;1906;-78
2022/12/18 12:22:56;;;;;;;;;;;;;;;20.76;29.61;99237.94;5099779;28;857;-78
2022/12/18 12:25:54;;;;;;;;;;;;;;;20.70;29.92;99242.41;5099310;28;923;-79
2022/12/18 12:28:38;;;;;;;;;;;;;;;21.22;29.17;99250.28;5036558;28;995;-78
2022/12/18 12:31:07;;;;;;;;;;;;;;;21.54;28.39;99250.13;5037043;28;921;-78
2022/12/18 12:33:50;;;;;;;;;;;;;;;21.12;29.04;99251.94;5036456;28;1066;-78
2022/12/18 12:36:15;;;;;;;;;;;;;;;20.67;29.68;99248.09;5020412;28;1377;-78
2022/12/18 12:38:45;;;;;;;;;;;;;;;20.83;29.58;99256.94;5036803;28;1148;-78
2022/12/18 12:43:57;;;;;;;;;;;;;;;21.24;28.90;99274.16;5022053;28;961;-78
2022/12/18 12:46:22;;;;;;;;;;;;;;;21.01;29.24;99282.31;4996998;28;973;-78
2022/12/18 12:48:58;;;;;;;;;;;;;;;20.91;29.53;99291.66;4996648;28;1203;-78
2022/12/18 12:51:24;;;;;;;;;;;;;;;20.84;29.47;99292.50;4996938;28;983;-78
2022/12/18 12:53:50;;;;;;;;;;;;;;;21.12;29.27;99291.56;4997214;28;864;-79
2022/12/18 12:56:16;;;;;;;;;;;;;;;21.28;28.93;99293.94;4997183;28;902;-78
2022/12/18 12:58:44;;;;;;;;;;;;;;;21.18;29.01;99298.41;4996712;28;1672;-79
2022/12/18 13:01:22;;;;;;;;;;;;;;;21.01;29.12;99302.13;4997074;28;2055;-79
2022/12/18 13:03:53;;;;;;;;;;;;;;;20.94;29.52;99305.81;5032329;28;1027;-79
2022/12/18 13:06:23;;;;;;;;;;;;;;;20.95;29.77;99295.28;5076575;28;936;-80
2022/12/18 13:08:53;;;;;;;;;;;;;;;21.04;29.49;99285.16;5076192;28;916;-79
2022/12/18 13:14:32;;;;;;;;;;;;;;;21.05;29.19;99297.28;5016260;28;973;-79
2022/12/18 13:17:17;;;;;;;;;;;;;;;21.00;29.35;99303.34;5013180;28;924;-79